Time;durP1;ratioP1;P1;durP2;ratioP2;P2;SDS_P1;SDS_P2;PMS_P1;PMS_P2;Temp;Humidity;BMP_temperature;BMP_pressure;BME280_temperature;BME280_humidity;BME280_pressure;Samples;Min_cycle;Max_cycle;Signal;HPM_P1;HPM_P2
2020/12/07 00:01:56;;;;;;;6.28;4.00;;;;;;;;;;5037058;28;20036;-78
2020/12/07 00:04:22;;;;;;;8.63;3.70;;;;;;;;;;5036964;28;20411;-80
2020/12/07 00:06:52;;;;;;;6.18;4.00;;;;;;;;;;5035741;28;20041;-79
2020/12/07 00:09:18;;;;;;;5.60;3.75;;;;;;;;;;5037248;28;20045;-79
2020/12/07 00:11:47;;;;;;;6.90;3.72;;;;;;;;;;5035834;28;20029;-78
2020/12/07 00:14:13;;;;;;;6.78;4.10;;;;;;;;;;5036964;28;20312;-78
2020/12/07 00:16:39;;;;;;;8.00;4.63;;;;;;;;;;5036758;28;20029;-80
2020/12/07 00:19:05;;;;;;;8.30;4.10;;;;;;;;;;5035463;28;20060;-79
2020/12/07 00:21:31;;;;;;;7.65;3.88;;;;;;;;;;5035961;28;20017;-80
2020/12/07 00:23:57;;;;;;;7.03;4.10;;;;;;;;;;5036923;28;20033;-79
2020/12/07 00:26:23;;;;;;;8.10;3.80;;;;;;;;;;5036570;28;20095;-79
2020/12/07 00:28:49;;;;;;;6.07;3.63;;;;;;;;;;5036770;28;20103;-80
2020/12/07 00:31:15;;;;;;;7.90;4.00;;;;;;;;;;5036743;28;20041;-78
2020/12/07 00:33:41;;;;;;;5.00;3.22;;;;;;;;;;5035785;28;20028;-79
2020/12/07 00:36:08;;;;;;;6.95;4.05;;;;;;;;;;5036623;28;20056;-79
2020/12/07 00:38:34;;;;;;;9.77;4.25;;;;;;;;;;5036863;28;20034;-80
2020/12/07 00:41:00;;;;;;;6.97;3.90;;;;;;;;;;5035447;28;20030;-79
2020/12/07 00:43:26;;;;;;;9.93;4.78;;;;;;;;;;5036525;28;20026;-79
2020/12/07 00:45:52;;;;;;;9.25;4.32;;;;;;;;;;5036292;28;20098;-80
2020/12/07 00:48:18;;;;;;;8.68;3.90;;;;;;;;;;5036812;28;20022;-79
2020/12/07 00:50:44;;;;;;;15.90;5.88;;;;;;;;;;5036572;28;20045;-80
2020/12/07 00:53:10;;;;;;;11.40;5.20;;;;;;;;;;5036985;28;20017;-80
2020/12/07 00:55:36;;;;;;;8.85;4.38;;;;;;;;;;5039953;28;20137;-80
2020/12/07 00:58:03;;;;;;;7.93;4.53;;;;;;;;;;5040247;28;20053;-79
2020/12/07 01:00:29;;;;;;;4.78;2.97;;;;;;;;;;5040375;28;20347;-79
2020/12/07 01:02:55;;;;;;;5.80;3.90;;;;;;;;;;5040295;28;20021;-80
2020/12/07 01:05:21;;;;;;;6.13;3.50;;;;;;;;;;5040071;28;20026;-79
2020/12/07 01:07:47;;;;;;;5.00;3.25;;;;;;;;;;5039060;28;20103;-80
2020/12/07 01:10:13;;;;;;;5.25;3.45;;;;;;;;;;5040385;28;20029;-80
2020/12/07 01:12:40;;;;;;;5.53;3.05;;;;;;;;;;5040095;28;20041;-80
2020/12/07 01:15:06;;;;;;;7.57;3.13;;;;;;;;;;5040312;28;20311;-79
2020/12/07 01:17:32;;;;;;;4.93;2.80;;;;;;;;;;5040016;28;20025;-79
2020/12/07 01:19:58;;;;;;;5.03;2.80;;;;;;;;;;5039910;28;20060;-79
2020/12/07 01:22:24;;;;;;;5.97;3.45;;;;;;;;;;5038823;28;20080;-80
2020/12/07 01:24:50;;;;;;;4.70;2.70;;;;;;;;;;5039751;28;20088;-80
2020/12/07 01:27:16;;;;;;;5.32;2.70;;;;;;;;;;5039688;28;20029;-81
2020/12/07 01:29:42;;;;;;;7.28;3.38;;;;;;;;;;5039833;28;20028;-80
2020/12/07 01:32:08;;;;;;;7.38;2.90;;;;;;;;;;5038639;28;20017;-79
2020/12/07 01:34:34;;;;;;;6.97;4.38;;;;;;;;;;5039804;28;20115;-79
2020/12/07 01:37:00;;;;;;;6.85;3.53;;;;;;;;;;5039800;28;20022;-79
2020/12/07 01:39:26;;;;;;;6.10;3.08;;;;;;;;;;5039504;28;20029;-80
2020/12/07 01:41:52;;;;;;;8.85;3.40;;;;;;;;;;5039733;28;20025;-80
2020/12/07 01:44:19;;;;;;;5.97;3.50;;;;;;;;;;5039648;28;20048;-79
2020/12/07 01:46:45;;;;;;;7.88;3.95;;;;;;;;;;5039443;28;20033;-79
2020/12/07 01:49:11;;;;;;;8.43;3.80;;;;;;;;;;5039459;28;20021;-79
2020/12/07 01:51:37;;;;;;;7.13;3.67;;;;;;;;;;5039403;28;20029;-79
2020/12/07 01:54:04;;;;;;;8.93;3.97;;;;;;;;;;5039303;28;20037;-79
2020/12/07 01:56:30;;;;;;;6.35;3.78;;;;;;;;;;5039091;28;20068;-79
2020/12/07 01:58:57;;;;;;;7.75;3.53;;;;;;;;;;5039435;28;20048;-78
2020/12/07 02:01:23;;;;;;;5.68;3.60;;;;;;;;;;5038217;28;20021;-79
2020/12/07 02:03:49;;;;;;;8.90;3.60;;;;;;;;;;5039085;28;20375;-80
2020/12/07 02:06:15;;;;;;;8.52;3.60;;;;;;;;;;5037968;28;20071;-79
2020/12/07 02:08:42;;;;;;;6.93;3.50;;;;;;;;;;5038899;28;20021;-79
2020/12/07 02:11:08;;;;;;;13.23;4.13;;;;;;;;;;5039014;28;20138;-79
2020/12/07 02:13:34;;;;;;;6.70;3.45;;;;;;;;;;5039045;28;20403;-81
2020/12/07 02:16:00;;;;;;;8.30;3.90;;;;;;;;;;5039073;28;20021;-79
2020/12/07 02:18:26;;;;;;;5.47;3.35;;;;;;;;;;5038879;28;20102;-78
2020/12/07 02:20:52;;;;;;;8.38;3.90;;;;;;;;;;5038750;28;20039;-79
2020/12/07 02:23:18;;;;;;;7.15;4.00;;;;;;;;;;5038719;28;20032;-80
2020/12/07 02:25:44;;;;;;;7.32;4.07;;;;;;;;;;5038463;28;20060;-79
2020/12/07 02:28:10;;;;;;;10.98;4.35;;;;;;;;;;5038974;28;20028;-79
2020/12/07 02:30:36;;;;;;;5.60;3.50;;;;;;;;;;5038519;28;20382;-79
2020/12/07 02:33:03;;;;;;;5.93;3.67;;;;;;;;;;5038880;28;20100;-79
2020/12/07 02:35:29;;;;;;;7.78;3.83;;;;;;;;;;5038533;28;20104;-79
2020/12/07 02:37:55;;;;;;;6.32;3.45;;;;;;;;;;5038449;28;20465;-79
2020/12/07 02:40:21;;;;;;;6.70;3.00;;;;;;;;;;5038476;28;20113;-79
2020/12/07 02:42:47;;;;;;;6.05;3.55;;;;;;;;;;5038380;28;20044;-79
2020/12/07 02:45:14;;;;;;;4.63;3.20;;;;;;;;;;5038331;28;20022;-78
2020/12/07 02:47:41;;;;;;;7.97;3.00;;;;;;;;;;5038411;28;20056;-79
2020/12/07 02:50:08;;;;;;;5.18;3.10;;;;;;;;;;5037116;28;20038;-79
2020/12/07 02:52:52;;;;;;;5.72;2.88;;;;;;;;;;5038291;28;20026;-79
2020/12/07 02:55:19;;;;;;;5.28;2.85;;;;;;;;;;5037861;28;20100;-79
2020/12/07 02:57:45;;;;;;;6.22;3.17;;;;;;;;;;5038188;28;20044;-79
2020/12/07 03:00:11;;;;;;;7.07;2.65;;;;;;;;;;5038298;28;20108;-78
2020/12/07 03:02:37;;;;;;;5.43;3.30;;;;;;;;;;5038109;28;20032;-79
2020/12/07 03:05:04;;;;;;;7.75;3.20;;;;;;;;;;5038089;28;20036;-79
2020/12/07 03:07:30;;;;;;;5.88;3.30;;;;;;;;;;5037997;28;20136;-78
2020/12/07 03:09:56;;;;;;;7.07;3.55;;;;;;;;;;5037865;28;20076;-79
2020/12/07 03:12:22;;;;;;;4.47;3.10;;;;;;;;;;5037856;28;20030;-79
2020/12/07 03:14:48;;;;;;;5.88;2.90;;;;;;;;;;5037675;28;20049;-80
2020/12/07 03:17:14;;;;;;;6.05;3.30;;;;;;;;;;5036796;28;20025;-79
2020/12/07 03:19:40;;;;;;;6.50;3.13;;;;;;;;;;5037672;28;20025;-79
2020/12/07 03:22:07;;;;;;;4.55;3.47;;;;;;;;;;5037593;28;20030;-79
2020/12/07 03:24:33;;;;;;;6.07;3.00;;;;;;;;;;5037468;28;20412;-79
2020/12/07 03:26:59;;;;;;;5.70;3.33;;;;;;;;;;5037594;28;20108;-79
2020/12/07 03:29:25;;;;;;;8.10;3.65;;;;;;;;;;5037684;28;20026;-79
2020/12/07 03:31:51;;;;;;;7.03;3.28;;;;;;;;;;5037535;28;20457;-78
2020/12/07 03:34:17;;;;;;;6.50;3.38;;;;;;;;;;5037394;28;20320;-79
2020/12/07 03:36:43;;;;;;;5.22;3.25;;;;;;;;;;5037273;28;20049;-78
2020/12/07 03:39:09;;;;;;;5.15;3.30;;;;;;;;;;5037146;28;20108;-79
2020/12/07 03:41:35;;;;;;;6.70;3.30;;;;;;;;;;5037482;28;20026;-79
2020/12/07 03:44:01;;;;;;;5.93;3.78;;;;;;;;;;5036836;28;20032;-79
2020/12/07 03:46:27;;;;;;;6.78;3.75;;;;;;;;;;5037292;28;20026;-79
2020/12/07 03:48:53;;;;;;;4.90;3.35;;;;;;;;;;5036208;28;20037;-79
2020/12/07 03:51:19;;;;;;;7.82;3.97;;;;;;;;;;5037291;28;20411;-80
2020/12/07 03:53:45;;;;;;;7.38;3.70;;;;;;;;;;5037666;28;20021;-80
2020/12/07 03:56:12;;;;;;;6.93;3.50;;;;;;;;;;5036977;28;20087;-81
2020/12/07 03:58:38;;;;;;;5.38;3.40;;;;;;;;;;5037144;28;20407;-80
2020/12/07 04:01:05;;;;;;;6.30;3.72;;;;;;;;;;5037149;28;20026;-80
2020/12/07 04:03:31;;;;;;;6.20;3.20;;;;;;;;;;5037187;28;20034;-79
2020/12/07 04:06:09;;;;;;;6.35;3.88;;;;;;;;;;5037085;28;20071;-81
2020/12/07 04:08:35;;;;;;;5.43;3.20;;;;;;;;;;5036961;28;20025;-79
2020/12/07 04:11:01;;;;;;;5.68;3.30;;;;;;;;;;5036964;28;20049;-80
2020/12/07 04:13:27;;;;;;;4.93;3.33;;;;;;;;;;5036908;28;20025;-80
2020/12/07 04:15:53;;;;;;;8.23;3.08;;;;;;;;;;5036936;28;20021;-79
2020/12/07 04:18:20;;;;;;;9.80;4.30;;;;;;;;;;5037240;28;20025;-80
2020/12/07 04:20:46;;;;;;;16.75;10.63;;;;;;;;;;5036825;28;20045;-80
2020/12/07 04:23:12;;;;;;;6.97;5.13;;;;;;;;;;5037139;28;20029;-79
2020/12/07 04:25:38;;;;;;;9.75;4.22;;;;;;;;;;5036817;28;20028;-80
2020/12/07 04:28:04;;;;;;;6.47;4.20;;;;;;;;;;5037118;28;20022;-79
2020/12/07 04:30:30;;;;;;;6.60;4.10;;;;;;;;;;5040893;28;20101;-81
2020/12/07 04:32:56;;;;;;;6.65;4.72;;;;;;;;;;5040990;28;20017;-81
2020/12/07 04:35:22;;;;;;;7.95;4.90;;;;;;;;;;5040621;28;20361;-80
2020/12/07 04:37:48;;;;;;;10.15;5.22;;;;;;;;;;5040980;28;20025;-80
2020/12/07 04:40:14;;;;;;;7.38;4.85;;;;;;;;;;5039615;28;20120;-79
2020/12/07 04:42:41;;;;;;;8.88;5.07;;;;;;;;;;5039496;28;20484;-78
2020/12/07 04:45:08;;;;;;;9.05;4.75;;;;;;;;;;5040573;28;20038;-78
2020/12/07 04:47:34;;;;;;;11.02;5.82;;;;;;;;;;5040577;28;20029;-79
2020/12/07 04:50:04;;;;;;;12.95;5.97;;;;;;;;;;5040496;28;20018;-80
2020/12/07 04:52:32;;;;;;;9.65;5.47;;;;;;;;;;5040530;28;20021;-79
2020/12/07 04:54:59;;;;;;;9.25;5.07;;;;;;;;;;5040290;28;20056;-79
2020/12/07 04:57:25;;;;;;;9.57;5.30;;;;;;;;;;5040455;28;20029;-81
2020/12/07 04:59:52;;;;;;;10.68;6.32;;;;;;;;;;5040486;28;20076;-81
2020/12/07 05:02:18;;;;;;;12.45;6.05;;;;;;;;;;5040481;28;20030;-80
2020/12/07 05:04:45;;;;;;;11.05;5.75;;;;;;;;;;5040146;28;20033;-79
2020/12/07 05:07:11;;;;;;;8.00;5.18;;;;;;;;;;5040403;28;20033;-79
2020/12/07 05:09:39;;;;;;;9.50;5.20;;;;;;;;;;5040068;28;20022;-79
2020/12/07 05:12:12;;;;;;;8.57;5.03;;;;;;;;;;5039011;28;20037;-79
2020/12/07 05:14:38;;;;;;;10.70;5.43;;;;;;;;;;5040234;28;20038;-79
2020/12/07 05:17:04;;;;;;;8.85;5.05;;;;;;;;;;5039906;28;20033;-79
2020/12/07 05:19:31;;;;;;;10.48;4.43;;;;;;;;;;5039960;28;20021;-79
2020/12/07 05:21:57;;;;;;;6.03;4.10;;;;;;;;;;5039885;28;20055;-79
2020/12/07 05:24:25;;;;;;;7.30;4.43;;;;;;;;;;5039808;28;20359;-79
2020/12/07 05:26:52;;;;;;;7.72;4.00;;;;;;;;;;5039878;28;20025;-80
2020/12/07 05:29:31;;;;;;;7.47;4.28;;;;;;;;;;5039835;28;20431;-81
2020/12/07 05:31:58;;;;;;;8.10;4.13;;;;;;;;;;5039830;28;20076;-80
2020/12/07 05:34:25;;;;;;;5.68;3.65;;;;;;;;;;5038543;28;20029;-80
2020/12/07 05:36:55;;;;;;;7.40;4.78;;;;;;;;;;5038682;28;20415;-80
2020/12/07 05:39:22;;;;;;;7.90;4.90;;;;;;;;;;5039439;28;20491;-80
2020/12/07 05:41:49;;;;;;;7.35;5.20;;;;;;;;;;5038805;28;20029;-80
2020/12/07 05:44:16;;;;;;;10.02;5.78;;;;;;;;;;5039603;28;20053;-79
2020/12/07 05:46:46;;;;;;;10.38;6.13;;;;;;;;;;5038614;28;20316;-79
2020/12/07 05:49:14;;;;;;;11.40;6.70;;;;;;;;;;5039417;28;20022;-81
2020/12/07 05:51:42;;;;;;;17.73;8.95;;;;;;;;;;5039573;28;20347;-79
2020/12/07 05:54:09;;;;;;;11.43;7.63;;;;;;;;;;5039507;28;20022;-79
2020/12/07 05:56:38;;;;;;;9.68;5.40;;;;;;;;;;5039385;28;20056;-79
2020/12/07 05:59:07;;;;;;;13.75;6.95;;;;;;;;;;5039220;28;20029;-79
2020/12/07 06:01:34;;;;;;;18.70;8.43;;;;;;;;;;5038195;28;20026;-79
2020/12/07 06:04:00;;;;;;;46.55;23.23;;;;;;;;;;5039137;28;20029;-80
2020/12/07 06:06:26;;;;;;;12.60;7.18;;;;;;;;;;5039112;28;20132;-79
2020/12/07 06:08:52;;;;;;;12.05;6.95;;;;;;;;;;5039163;28;20056;-79
2020/12/07 06:11:20;;;;;;;18.88;10.80;;;;;;;;;;5039003;28;20045;-80
2020/12/07 06:13:46;;;;;;;7.18;4.32;;;;;;;;;;5049425;28;20020;-78
2020/12/07 06:16:13;;;;;;;11.40;6.32;;;;;;;;;;5042180;28;20079;-78
2020/12/07 06:18:43;;;;;;;14.43;7.65;;;;;;;;;;5039029;28;20025;-79
2020/12/07 06:21:17;;;;;;;10.88;5.07;;;;;;;;;;5038815;28;20454;-78
2020/12/07 06:23:44;;;;;;;11.15;5.65;;;;;;;;;;5038782;28;20072;-79
2020/12/07 06:26:11;;;;;;;9.18;5.78;;;;;;;;;;5038589;28;20248;-78
2020/12/07 06:28:38;;;;;;;12.25;6.10;;;;;;;;;;5038562;28;20025;-79
2020/12/07 06:31:08;;;;;;;14.38;6.78;;;;;;;;;;5038582;28;20112;-80
2020/12/07 06:33:41;;;;;;;23.00;7.93;;;;;;;;;;5037627;28;20112;-79
2020/12/07 06:36:22;;;;;;;16.25;7.18;;;;;;;;;;5038624;28;20027;-80
2020/12/07 06:38:49;;;;;;;15.57;6.97;;;;;;;;;;5038489;28;20414;-78
2020/12/07 06:41:17;;;;;;;75.82;44.78;;;;;;;;;;5038348;28;20033;-79
2020/12/07 06:43:56;;;;;;;12.70;5.78;;;;;;;;;;5038596;28;20036;-79
2020/12/07 06:46:41;;;;;;;11.35;4.80;;;;;;;;;;5038523;28;20052;-79
2020/12/07 06:49:07;;;;;;;10.50;5.75;;;;;;;;;;5038251;28;20028;-79
2020/12/07 06:51:34;;;;;;;13.63;7.50;;;;;;;;;;5037289;28;20112;-79
2020/12/07 06:54:09;;;;;;;18.02;6.00;;;;;;;;;;5038165;28;20014;-79
2020/12/07 06:56:35;;;;;;;12.65;6.45;;;;;;;;;;5037152;28;20049;-80
2020/12/07 06:59:08;;;;;;;23.42;8.32;;;;;;;;;;5037152;28;20087;-79
2020/12/07 07:01:34;;;;;;;10.73;6.82;;;;;;;;;;5038303;28;20052;-78
2020/12/07 07:04:00;;;;;;;19.60;9.15;;;;;;;;;;5038048;28;20029;-79
2020/12/07 07:06:26;;;;;;;14.77;8.07;;;;;;;;;;5037844;28;20032;-79
2020/12/07 07:08:59;;;;;;;12.80;5.28;;;;;;;;;;5037888;28;20029;-79
2020/12/07 07:11:25;;;;;;;13.48;5.68;;;;;;;;;;5038214;28;20025;-79
2020/12/07 07:13:51;;;;;;;14.25;6.75;;;;;;;;;;5045607;28;20025;-78
2020/12/07 07:16:18;;;;;;;11.73;6.97;;;;;;;;;;5037799;28;20067;-78
2020/12/07 07:18:44;;;;;;;19.02;10.23;;;;;;;;;;5037811;28;20021;-79
2020/12/07 07:21:10;;;;;;;14.05;7.03;;;;;;;;;;5037773;28;20399;-79
2020/12/07 07:23:42;;;;;;;20.27;10.60;;;;;;;;;;5037743;28;20025;-79
2020/12/07 07:26:19;;;;;;;96.45;37.22;;;;;;;;;;5037898;28;20044;-80
2020/12/07 07:28:46;;;;;;;96.15;41.53;;;;;;;;;;5037676;28;20092;-79
2020/12/07 07:31:12;;;;;;;132.32;54.50;;;;;;;;;;5037421;28;20021;-79
2020/12/07 07:33:39;;;;;;;113.22;52.60;;;;;;;;;;5036562;28;20022;-79
2020/12/07 07:36:05;;;;;;;114.28;53.70;;;;;;;;;;5037448;28;20036;-79
2020/12/07 07:38:33;;;;;;;132.32;60.58;;;;;;;;;;5037641;28;20052;-79
2020/12/07 07:40:59;;;;;;;95.05;41.42;;;;;;;;;;5037476;28;20030;-80
2020/12/07 07:43:25;;;;;;;88.18;41.22;;;;;;;;;;5037403;28;20045;-79
2020/12/07 07:46:00;;;;;;;41.95;20.52;;;;;;;;;;5037416;28;20028;-79
2020/12/07 07:48:37;;;;;;;40.45;18.52;;;;;;;;;;5037178;28;20056;-79
2020/12/07 07:51:58;;;;;;;98.13;46.03;;;;;;;;;;5037452;28;20040;-79
2020/12/07 08:00:22;;;;;;;47.00;27.77;;;;;;;;;;5035552;28;20036;-79
2020/12/07 08:16:20;;;;;;;15.60;9.05;;;;;;;;;;4976296;28;20051;-78
2020/12/07 08:18:47;;;;;;;17.45;8.98;;;;;;;;;;4976228;28;20027;-78
2020/12/07 08:21:24;;;;;;;7.88;4.82;;;;;;;;;;4976369;28;20042;-79
2020/12/07 08:23:53;;;;;;;40.75;21.13;;;;;;;;;;4976399;28;20062;-78
2020/12/07 08:26:19;;;;;;;32.97;17.65;;;;;;;;;;4975936;28;20057;-79
2020/12/07 08:28:48;;;;;;;9.43;5.65;;;;;;;;;;4976231;28;20057;-79
2020/12/07 08:31:18;;;;;;;10.48;7.10;;;;;;;;;;4976201;28;20027;-79
2020/12/07 08:34:06;;;;;;;18.67;8.18;;;;;;;;;;4990527;28;20065;-79
2020/12/07 08:36:33;;;;;;;23.17;8.35;;;;;;;;;;4995454;28;20049;-78
2020/12/07 08:38:59;;;;;;;14.70;6.50;;;;;;;;;;4995524;28;20113;-78
2020/12/07 08:41:27;;;;;;;20.42;11.13;;;;;;;;;;5009015;28;20326;-79
2020/12/07 08:43:54;;;;;;;30.52;16.75;;;;;;;;;;5036748;28;20032;-78
2020/12/07 08:46:21;;;;;;;72.75;35.08;;;;;;;;;;5036591;28;20025;-78
2020/12/07 08:48:48;;;;;;;107.50;49.97;;;;;;;;;;5036667;28;20021;-78
2020/12/07 08:51:14;;;;;;;45.85;25.20;;;;;;;;;;5036736;28;20030;-79
2020/12/07 08:53:43;;;;;;;40.72;23.65;;;;;;;;;;5035789;28;20320;-78
2020/12/07 08:56:09;;;;;;;19.67;10.15;;;;;;;;;;5036320;28;20140;-79
2020/12/07 08:58:36;;;;;;;31.40;18.15;;;;;;;;;;5036473;28;20431;-79
2020/12/07 09:01:04;;;;;;;142.48;50.40;;;;;;;;;;5036605;28;20453;-79
2020/12/07 09:03:30;;;;;;;31.63;14.75;;;;;;;;;;5036539;28;20061;-79
2020/12/07 09:05:56;;;;;;;70.50;26.80;;;;;;;;;;5035356;28;20372;-79
2020/12/07 09:08:22;;;;;;;82.32;34.78;;;;;;;;;;5035940;28;20025;-79
2020/12/07 09:10:48;;;;;;;93.38;44.90;;;;;;;;;;5036350;28;20031;-80
2020/12/07 09:13:14;;;;;;;243.63;95.20;;;;;;;;;;5035330;28;20045;-79
2020/12/07 09:15:40;;;;;;;306.80;115.55;;;;;;;;;;5037169;28;20018;-79
2020/12/07 09:18:06;;;;;;;243.90;92.57;;;;;;;;;;5039010;28;20465;-79
2020/12/07 09:20:32;;;;;;;209.48;81.45;;;;;;;;;;5039977;28;20049;-80
2020/12/07 09:22:58;;;;;;;42.22;20.33;;;;;;;;;;5039999;28;20032;-79
2020/12/07 09:25:24;;;;;;;138.77;54.83;;;;;;;;;;5038693;28;20050;-79
2020/12/07 09:27:51;;;;;;;571.55;202.35;;;;;;;;;;5039943;28;20113;-80
2020/12/07 09:30:17;;;;;;;349.85;119.82;;;;;;;;;;5039784;28;20017;-80
2020/12/07 09:32:43;;;;;;;172.95;68.03;;;;;;;;;;5038818;28;20029;-79
2020/12/07 09:35:09;;;;;;;242.70;96.88;;;;;;;;;;5038698;28;20426;-79
2020/12/07 09:37:36;;;;;;;163.57;65.57;;;;;;;;;;5039752;28;20529;-79
2020/12/07 09:40:03;;;;;;;40.00;17.95;;;;;;;;;;5039309;28;20025;-78
2020/12/07 09:42:29;;;;;;;34.00;14.82;;;;;;;;;;5039430;28;20411;-78
2020/12/07 09:44:55;;;;;;;45.75;23.27;;;;;;;;;;5039490;28;20029;-79
2020/12/07 09:47:21;;;;;;;36.17;20.65;;;;;;;;;;5039459;28;20057;-80
2020/12/07 09:49:47;;;;;;;58.70;43.63;;;;;;;;;;5039335;28;20030;-80
2020/12/07 09:52:14;;;;;;;36.40;23.48;;;;;;;;;;5039442;28;20032;-80
2020/12/07 09:54:40;;;;;;;32.53;20.15;;;;;;;;;;5038968;28;20057;-80
2020/12/07 09:57:06;;;;;;;23.20;11.13;;;;;;;;;;5039234;28;20021;-80
2020/12/07 09:59:33;;;;;;;42.58;25.05;;;;;;;;;;5039423;28;20029;-80
2020/12/07 10:02:00;;;;;;;26.92;16.58;;;;;;;;;;5039142;28;20366;-79
2020/12/07 10:04:26;;;;;;;32.20;17.60;;;;;;;;;;5038819;28;20025;-80
2020/12/07 10:06:52;;;;;;;31.15;14.95;;;;;;;;;;5037962;28;20021;-79
2020/12/07 10:09:19;;;;;;;26.65;14.77;;;;;;;;;;5039133;28;20025;-78
2020/12/07 10:11:45;;;;;;;26.25;12.95;;;;;;;;;;5039058;28;20412;-80
2020/12/07 10:14:11;;;;;;;35.88;22.52;;;;;;;;;;5038691;28;20029;-80
2020/12/07 10:16:37;;;;;;;36.45;24.15;;;;;;;;;;5038846;28;20032;-78
2020/12/07 10:19:03;;;;;;;40.05;22.13;;;;;;;;;;5038890;28;20515;-81
2020/12/07 10:21:30;;;;;;;24.65;12.45;;;;;;;;;;5038699;28;20080;-80
2020/12/07 10:23:56;;;;;;;28.17;14.05;;;;;;;;;;5038787;28;20025;-79
2020/12/07 10:26:23;;;;;;;32.47;15.73;;;;;;;;;;5038017;28;20033;-80
2020/12/07 10:28:49;;;;;;;51.17;32.20;;;;;;;;;;5038672;28;20056;-81
2020/12/07 10:31:15;;;;;;;53.28;28.13;;;;;;;;;;5038579;28;20419;-80
2020/12/07 10:33:41;;;;;;;28.15;15.00;;;;;;;;;;5038750;28;20052;-79
2020/12/07 10:36:08;;;;;;;15.95;8.85;;;;;;;;;;5038707;28;20026;-80
2020/12/07 10:38:34;;;;;;;25.17;14.60;;;;;;;;;;5038381;28;20072;-80
2020/12/07 10:41:00;;;;;;;17.25;10.13;;;;;;;;;;5038105;28;20033;-80
2020/12/07 10:43:26;;;;;;;32.42;17.17;;;;;;;;;;5038294;28;20028;-79
2020/12/07 10:45:52;;;;;;;35.30;20.45;;;;;;;;;;5038555;28;20022;-79
2020/12/07 10:48:18;;;;;;;32.90;16.20;;;;;;;;;;5038449;28;20120;-80
2020/12/07 10:50:45;;;;;;;17.50;7.63;;;;;;;;;;5037990;28;20363;-80
2020/12/07 10:53:11;;;;;;;15.60;7.00;;;;;;;;;;5037076;28;20301;-79
2020/12/07 10:55:37;;;;;;;23.42;8.50;;;;;;;;;;5037812;28;20431;-79
2020/12/07 10:58:03;;;;;;;22.58;9.32;;;;;;;;;;5038066;28;20332;-79
2020/12/07 11:00:29;;;;;;;57.95;17.13;;;;;;;;;;5038086;28;20449;-79
2020/12/07 11:02:55;;;;;;;46.40;18.95;;;;;;;;;;5036953;28;20455;-80
2020/12/07 11:05:21;;;;;;;18.83;8.90;;;;;;;;;;5038032;28;20025;-81
2020/12/07 11:07:50;;;;;;;27.30;13.70;;;;;;;;;;5037887;28;20032;-79
2020/12/07 11:10:16;;;;;;;12.52;7.07;;;;;;;;;;5037760;28;20109;-80
2020/12/07 11:12:46;;;;;;;16.77;7.80;;;;;;;;;;5037737;28;20029;-79
2020/12/07 11:15:12;;;;;;;18.00;9.13;;;;;;;;;;5036696;28;20035;-79
2020/12/07 11:17:38;;;;;;;19.65;10.40;;;;;;;;;;5037801;28;20034;-79
2020/12/07 11:20:04;;;;;;;16.65;10.35;;;;;;;;;;5037666;28;20113;-79
2020/12/07 11:22:30;;;;;;;13.88;7.45;;;;;;;;;;5036659;28;20029;-80
2020/12/07 11:24:56;;;;;;;12.20;7.70;;;;;;;;;;5037467;28;20033;-79
2020/12/07 11:27:22;;;;;;;12.00;6.70;;;;;;;;;;5036267;28;20033;-79
2020/12/07 11:29:48;;;;;;;8.23;5.13;;;;;;;;;;5036588;28;20024;-80
2020/12/07 11:32:17;;;;;;;16.25;7.72;;;;;;;;;;5037710;28;20423;-79
2020/12/07 11:34:43;;;;;;;16.02;10.10;;;;;;;;;;5037373;28;20407;-80
2020/12/07 11:37:09;;;;;;;15.65;10.88;;;;;;;;;;5036254;28;20371;-78
2020/12/07 11:39:53;;;;;;;13.00;5.30;;;;;;;;;;5036357;28;20030;-79
2020/12/07 11:42:46;;;;;;;16.35;10.55;;;;;;;;;;5037168;28;20025;-79
2020/12/07 11:45:06;;;;;;;39.70;26.95;;;;;;;;;;5036871;28;20029;-80
2020/12/07 11:47:32;;;;;;;123.97;110.15;;;;;;;;;;5037152;28;20018;-80
2020/12/07 11:50:01;;;;;;;102.10;63.38;;;;;;;;;;5037028;28;20285;-79
2020/12/07 11:52:27;;;;;;;82.03;43.72;;;;;;;;;;5037087;28;20481;-79
2020/12/07 11:54:53;;;;;;;35.17;20.23;;;;;;;;;;5036859;28;20436;-79
2020/12/07 11:57:20;;;;;;;64.78;35.67;;;;;;;;;;5037375;28;20053;-79
2020/12/07 11:59:46;;;;;;;41.95;18.10;;;;;;;;;;5037387;28;20049;-79
2020/12/07 12:02:12;;;;;;;86.18;48.60;;;;;;;;;;5037173;28;20029;-80
2020/12/07 12:04:38;;;;;;;54.67;30.00;;;;;;;;;;5036933;28;20033;-80
2020/12/07 12:07:04;;;;;;;16.23;8.88;;;;;;;;;;5036895;28;20358;-80
2020/12/07 12:09:30;;;;;;;11.32;6.03;;;;;;;;;;5037058;28;20132;-80
2020/12/07 12:11:56;;;;;;;17.08;6.78;;;;;;;;;;5037017;28;20431;-78
2020/12/07 12:14:22;;;;;;;27.33;14.50;;;;;;;;;;5036955;28;20427;-80
2020/12/07 12:16:48;;;;;;;13.23;6.95;;;;;;;;;;5036848;28;20109;-80
2020/12/07 12:19:14;;;;;;;41.42;22.02;;;;;;;;;;5035844;28;20032;-79
2020/12/07 12:21:41;;;;;;;29.33;18.15;;;;;;;;;;5036875;28;20021;-79
2020/12/07 12:24:07;;;;;;;38.80;23.58;;;;;;;;;;5036953;28;20311;-80
2020/12/07 12:26:37;;;;;;;34.10;19.58;;;;;;;;;;5035906;28;20040;-79
2020/12/07 12:29:03;;;;;;;13.38;7.35;;;;;;;;;;5037076;28;20017;-79
2020/12/07 12:31:29;;;;;;;16.90;11.32;;;;;;;;;;5036886;28;20017;-79
2020/12/07 12:33:56;;;;;;;18.60;10.85;;;;;;;;;;5035808;28;20026;-79
2020/12/07 12:36:25;;;;;;;10.95;5.97;;;;;;;;;;5036757;28;20029;-80
2020/12/07 12:38:51;;;;;;;22.02;12.63;;;;;;;;;;5036628;28;20116;-80
2020/12/07 12:41:18;;;;;;;14.43;9.85;;;;;;;;;;5036838;28;20026;-80
2020/12/07 12:43:44;;;;;;;8.68;5.43;;;;;;;;;;5037086;28;20044;-79
2020/12/07 12:46:10;;;;;;;9.50;5.72;;;;;;;;;;5036671;28;20029;-79
2020/12/07 12:48:37;;;;;;;27.80;16.38;;;;;;;;;;5036486;28;20021;-79
2020/12/07 12:51:03;;;;;;;173.32;56.78;;;;;;;;;;5039920;28;20068;-78
2020/12/07 12:53:29;;;;;;;28.58;13.15;;;;;;;;;;5039440;28;20025;-79
2020/12/07 12:55:56;;;;;;;51.90;25.33;;;;;;;;;;5039206;28;20375;-79
2020/12/07 12:58:22;;;;;;;24.50;12.13;;;;;;;;;;5040475;28;20088;-79
2020/12/07 13:00:49;;;;;;;17.42;10.02;;;;;;;;;;5040298;28;20063;-78
2020/12/07 13:03:16;;;;;;;113.28;53.40;;;;;;;;;;5040260;28;20029;-78
2020/12/07 13:05:42;;;;;;;11.77;6.85;;;;;;;;;;5040070;28;20411;-78
2020/12/07 13:08:08;;;;;;;16.58;10.98;;;;;;;;;;5039074;28;20036;-80
2020/12/07 13:10:34;;;;;;;13.60;10.43;;;;;;;;;;5039051;28;20025;-79
2020/12/07 13:13:00;;;;;;;28.92;20.38;;;;;;;;;;5039903;28;20022;-79
2020/12/07 13:15:27;;;;;;;43.35;21.15;;;;;;;;;;5040383;28;20021;-80
2020/12/07 13:18:01;;;;;;;32.67;20.67;;;;;;;;;;5040126;28;20472;-79
2020/12/07 13:20:32;;;;;;;29.67;18.38;;;;;;;;;;5039895;28;20098;-78
2020/12/07 13:23:09;;;;;;;17.25;11.45;;;;;;;;;;5039951;28;20327;-80
2020/12/07 13:25:47;;;;;;;22.45;15.45;;;;;;;;;;5040078;28;20026;-79
2020/12/07 13:28:15;;;;;;;8.20;6.00;;;;;;;;;;5038790;28;20482;-79
2020/12/07 13:30:41;;;;;;;13.85;7.28;;;;;;;;;;5039809;28;20029;-79
2020/12/07 13:33:09;;;;;;;17.13;10.48;;;;;;;;;;5039837;28;20045;-79
2020/12/07 13:35:35;;;;;;;17.13;7.63;;;;;;;;;;5039687;28;20438;-80
2020/12/07 13:38:01;;;;;;;13.13;8.52;;;;;;;;;;5039732;28;20060;-79
2020/12/07 13:40:27;;;;;;;15.57;9.88;;;;;;;;;;5038584;28;20030;-79
2020/12/07 13:42:54;;;;;;;27.90;20.35;;;;;;;;;;5039444;28;20372;-79
2020/12/07 13:45:20;;;;;;;25.20;11.90;;;;;;;;;;5038343;28;20048;-79
2020/12/07 13:47:46;;;;;;;21.95;13.77;;;;;;;;;;5039337;28;20033;-80
2020/12/07 13:50:12;;;;;;;16.20;7.63;;;;;;;;;;5039658;28;20021;-80
2020/12/07 13:52:38;;;;;;;23.88;9.90;;;;;;;;;;5038311;28;20041;-79
2020/12/07 13:55:05;;;;;;;10.35;6.20;;;;;;;;;;5038057;28;20047;-79
2020/12/07 13:57:31;;;;;;;17.30;10.40;;;;;;;;;;5039051;28;20029;-79
2020/12/07 13:59:57;;;;;;;6.22;3.50;;;;;;;;;;5039254;28;20025;-83
2020/12/07 14:02:23;;;;;;;30.98;11.35;;;;;;;;;;5037214;28;20033;-79
2020/12/07 14:05:00;;;;;;;9.98;6.07;;;;;;;;;;5038125;28;20075;-79
2020/12/07 14:07:27;;;;;;;24.85;10.95;;;;;;;;;;5038765;28;20040;-78
2020/12/07 14:09:58;;;;;;;23.98;13.18;;;;;;;;;;5040960;28;20076;-79
2020/12/07 14:12:24;;;;;;;44.17;22.67;;;;;;;;;;5058885;28;20437;-78
2020/12/07 14:14:52;;;;;;;27.50;16.67;;;;;;;;;;5053074;28;20297;-78
2020/12/07 14:17:24;;;;;;;19.52;12.82;;;;;;;;;;5051118;28;20041;-78
2020/12/07 14:20:27;;;;;;;20.23;11.48;;;;;;;;;;5058993;28;20021;-79
2020/12/07 14:22:53;;;;;;;21.85;14.05;;;;;;;;;;5057526;28;20059;-78
2020/12/07 14:41:24;;;;;;;13.75;6.85;;;;;;;;;;4997247;28;20026;-78
2020/12/07 14:43:50;;;;;;;8.43;5.57;;;;;;;;;;4997236;28;20102;-79
2020/12/07 14:46:23;;;;;;;10.68;5.85;;;;;;;;;;4997118;28;20089;-78
2020/12/07 14:48:49;;;;;;;10.68;6.47;;;;;;;;;;4996550;28;20030;-78
2020/12/07 14:53:47;;;;;;;21.75;12.65;;;;;;;;;;4997166;28;20022;-78
2020/12/07 14:56:28;;;;;;;20.85;11.43;;;;;;;;;;4996841;28;20078;-78
2020/12/07 15:07:30;;;;;;;14.15;7.60;;;;;;;;;;4957913;29;20337;-78
2020/12/07 15:15:01;;;;;;;10.27;5.78;;;;;;;;;;5016358;28;20026;-78
2020/12/07 15:17:27;;;;;;;12.18;4.55;;;;;;;;;;5016354;28;20025;-79
2020/12/07 15:19:53;;;;;;;6.93;4.30;;;;;;;;;;5016154;28;20313;-78
2020/12/07 15:22:19;;;;;;;7.68;3.90;;;;;;;;;;5015996;28;20341;-78